TimeCST,TemperatureF,Dew PointF,Humidity,Sea Level PressureIn,VisibilityMPH,Wind Direction,Wind SpeedMPH,Gust SpeedMPH,PrecipitationIn,Events,Conditions,WindDirDegrees,DateUTC
12:00 AM,71,70,94,30.05,12,WSW,3.5,,,,Clear,240,2012-11-17 06:00:00
3:00 AM,71,69,92,30.04,12,NNW,4.6,,,,Mostly Cloudy,330,2012-11-17 09:00:00
3:00 AM,-9999,-9999,N/A,-9999,6.2,NNW,9.2,-,N/A,,Scattered Clouds,340,2012-11-17 09:00:00
5:00 AM,68.0,68.0,100,30.04,-9999.0,NW,4.6,-,N/A,,Clear,310,2012-11-17 11:00:00
6:00 AM,68,67,97,30.08,12,WNW,4.6,,,,Scattered Clouds,300,2012-11-17 12:00:00
6:00 AM,68.0,68.0,100,30.06,6.2,WNW,4.6,-,N/A,,Partly Cloudy,300,2012-11-17 12:00:00
7:00 AM,69.8,68.0,94,30.09,6.2,NW,3.5,-,N/A,,Partly Cloudy,310,2012-11-17 13:00:00
8:00 AM,71.6,68.0,88,30.09,6.2,WNW,4.6,-,N/A,,Partly Cloudy,300,2012-11-17 14:00:00
9:00 AM,68,,,30.12,12,NW,8.1,,,,Scattered Clouds,320,2012-11-17 15:00:00
9:00 AM,75.2,68.0,78,30.12,6.2,NW,8.1,-,N/A,,Partly Cloudy,320,2012-11-17 15:00:00
10:00 AM,78.8,68.0,69,30.12,6.2,North,8.1,-,N/A,,Partly Cloudy,350,2012-11-17 16:00:00
11:00 AM,80.6,66.2,61,30.10,6.2,NNW,5.8,-,N/A,,Partly Cloudy,330,2012-11-17 17:00:00
12:00 PM,82,66,50,30.08,12,WNW,8.1,,,,Partly Cloudy,300,2012-11-17 18:00:00
12:00 PM,82.4,66.2,58,30.07,6.2,WNW,8.1,-,N/A,,Scattered Clouds,300,2012-11-17 18:00:00
1:00 PM,84.2,62.6,48,30.05,6.2,NW,10.4,-,N/A,,Scattered Clouds,310,2012-11-17 19:00:00
2:00 PM,84.2,66.2,55,30.03,6.2,WNW,9.2,-,N/A,,Scattered Clouds,300,2012-11-17 20:00:00
3:00 PM,83,65,44,30.02,16,NW,8.1,,,,Partly Cloudy,310,2012-11-17 21:00:00
3:00 PM,82.4,64.4,54,30.01,6.2,NW,8.1,-,N/A,,Scattered Clouds,310,2012-11-17 21:00:00
4:00 PM,82.4,69.8,66,30.01,6.2,ENE,4.6,-,N/A,,Scattered Clouds,60,2012-11-17 22:00:00
5:00 PM,80.6,69.8,70,30.02,6.2,ENE,3.5,-,N/A,,Partly Cloudy,60,2012-11-17 23:00:00
6:00 PM,75.2,71.6,89,30.04,6.2,Calm,Calm,-,N/A,,Partly Cloudy,0,2012-11-18 00:00:00
9:00 PM,72,70,90,30.08,12,Calm,Calm,,,,Scattered Clouds,,2012-11-18 03:00:00